sensor_id;sensor_type;location;lat;lon;timestamp;pressure;altitude;pressure_sealevel;temperature;humidity
75298;BME280;63896;45.990;18.688;2023-06-01T00:02:07;100833.13;;;15.30;100.00
75298;BME280;63896;45.990;18.688;2023-06-01T00:05:10;100827.06;;;15.35;100.00
75298;BME280;63896;45.990;18.688;2023-06-01T00:08:13;100814.88;;;15.27;100.00
75298;BME280;63896;45.990;18.688;2023-06-01T00:11:15;100815.09;;;15.25;100.00
75298;BME280;63896;45.990;18.688;2023-06-01T00:14:18;100812.09;;;15.22;100.00
75298;BME280;63896;45.990;18.688;2023-06-01T00:17:21;100808.16;;;15.24;100.00
75298;BME280;63896;45.990;18.688;2023-06-01T00:20:25;100816.16;;;15.24;100.00
75298;BME280;63896;45.990;18.688;2023-06-01T00:23:31;100801.03;;;15.18;100.00
75298;BME280;63896;45.990;18.688;2023-06-01T00:26:34;100800.22;;;15.18;100.00
75298;BME280;63896;45.990;18.688;2023-06-01T00:29:37;100797.00;;;15.16;100.00
75298;BME280;63896;45.990;18.688;2023-06-01T00:32:40;100791.31;;;15.12;100.00
75298;BME280;63896;45.990;18.688;2023-06-01T00:35:43;100791.44;;;15.06;100.00
75298;BME280;63896;45.990;18.688;2023-06-01T00:38:46;100795.63;;;15.02;100.00
75298;BME280;63896;45.990;18.688;2023-06-01T00:41:49;100793.63;;;14.97;100.00
75298;BME280;63896;45.990;18.688;2023-06-01T00:44:52;100799.53;;;14.88;100.00
75298;BME280;63896;45.990;18.688;2023-06-01T00:47:56;100799.31;;;14.77;100.00
75298;BME280;63896;45.990;18.688;2023-06-01T00:51:00;100791.03;;;14.67;100.00
75298;BME280;63896;45.990;18.688;2023-06-01T00:54:03;100793.63;;;14.62;100.00
75298;BME280;63896;45.990;18.688;2023-06-01T00:57:06;100793.34;;;14.52;100.00
75298;BME280;63896;45.990;18.688;2023-06-01T01:00:10;100800.66;;;14.45;100.00
75298;BME280;63896;45.990;18.688;2023-06-01T01:03:13;100807.78;;;14.51;100.00
75298;BME280;63896;45.990;18.688;2023-06-01T01:06:26;100804.63;;;14.54;100.00
75298;BME280;63896;45.990;18.688;2023-06-01T01:09:44;100804.97;;;14.46;100.00
75298;BME280;63896;45.990;18.688;2023-06-01T01:16:27;100801.28;;;14.29;100.00
75298;BME280;63896;45.990;18.688;2023-06-01T01:26:09;100800.06;;;14.13;100.00
75298;BME280;63896;45.990;18.688;2023-06-01T01:29:15;100800.56;;;14.22;100.00
75298;BME280;63896;45.990;18.688;2023-06-01T01:32:20;100805.78;;;14.17;100.00
75298;BME280;63896;45.990;18.688;2023-06-01T01:35:25;100798.31;;;14.07;100.00
75298;BME280;63896;45.990;18.688;2023-06-01T01:38:28;100800.63;;;14.04;100.00
75298;BME280;63896;45.990;18.688;2023-06-01T01:41:31;100799.91;;;13.97;100.00
75298;BME280;63896;45.990;18.688;2023-06-01T01:44:34;100809.16;;;13.94;100.00
75298;BME280;63896;45.990;18.688;2023-06-01T01:47:54;100802.69;;;13.90;100.00
75298;BME280;63896;45.990;18.688;2023-06-01T01:54:50;100806.22;;;13.84;100.00
75298;BME280;63896;45.990;18.688;2023-06-01T01:57:55;100812.59;;;13.83;100.00
75298;BME280;63896;45.990;18.688;2023-06-01T02:00:59;100803.72;;;13.89;100.00
75298;BME280;63896;45.990;18.688;2023-06-01T02:04:04;100807.88;;;13.85;100.00
75298;BME280;63896;45.990;18.688;2023-06-01T02:07:10;100802.28;;;13.87;100.00
75298;BME280;63896;45.990;18.688;2023-06-01T02:10:13;100804.59;;;13.83;100.00
75298;BME280;63896;45.990;18.688;2023-06-01T02:13:17;100796.59;;;13.83;100.00
75298;BME280;63896;45.990;18.688;2023-06-01T02:16:19;100798.91;;;13.79;100.00
75298;BME280;63896;45.990;18.688;2023-06-01T02:19:24;100796.69;;;13.76;100.00
75298;BME280;63896;45.990;18.688;2023-06-01T02:22:27;100791.56;;;13.75;100.00
75298;BME280;63896;45.990;18.688;2023-06-01T02:25:29;100794.84;;;13.77;100.00
75298;BME280;63896;45.990;18.688;2023-06-01T02:28:32;100797.97;;;13.74;100.00
75298;BME280;63896;45.990;18.688;2023-06-01T02:31:35;100802.28;;;13.87;100.00
75298;BME280;63896;45.990;18.688;2023-06-01T02:34:38;100807.69;;;13.98;100.00
75298;BME280;63896;45.990;18.688;2023-06-01T02:37:42;100798.78;;;14.04;100.00
75298;BME280;63896;45.990;18.688;2023-06-01T02:40:45;100798.06;;;13.97;100.00
75298;BME280;63896;45.990;18.688;2023-06-01T02:43:48;100801.72;;;13.84;100.00
75298;BME280;63896;45.990;18.688;2023-06-01T02:46:53;100797.97;;;13.74;100.00
75298;BME280;63896;45.990;18.688;2023-06-01T02:49:56;100801.97;;;13.65;100.00
75298;BME280;63896;45.990;18.688;2023-06-01T02:52:59;100806.56;;;13.58;100.00
75298;BME280;63896;45.990;18.688;2023-06-01T02:56:02;100807.69;;;13.50;100.00
75298;BME280;63896;45.990;18.688;2023-06-01T02:59:17;100811.59;;;13.48;100.00
75298;BME280;63896;45.990;18.688;2023-06-01T03:02:29;100813.00;;;13.50;100.00
75298;BME280;63896;45.990;18.688;2023-06-01T03:05:32;100813.84;;;13.51;100.00
75298;BME280;63896;45.990;18.688;2023-06-01T03:09:16;100826.19;;;13.45;100.00
75298;BME280;63896;45.990;18.688;2023-06-01T03:12:38;100831.75;;;13.44;100.00
75298;BME280;63896;45.990;18.688;2023-06-01T03:15:41;100823.44;;;13.52;100.00
75298;BME280;63896;45.990;18.688;2023-06-01T03:18:44;100825.69;;;13.55;100.00
75298;BME280;63896;45.990;18.688;2023-06-01T03:21:48;100824.50;;;13.51;100.00
75298;BME280;63896;45.990;18.688;2023-06-01T03:24:55;100823.22;;;13.53;100.00
75298;BME280;63896;45.990;18.688;2023-06-01T03:28:04;100825.16;;;13.64;100.00
75298;BME280;63896;45.990;18.688;2023-06-01T03:31:08;100823.13;;;13.60;100.00
75298;BME280;63896;45.990;18.688;2023-06-01T03:34:14;100823.38;;;13.58;100.00
75298;BME280;63896;45.990;18.688;2023-06-01T03:37:16;100818.25;;;13.57;100.00
75298;BME280;63896;45.990;18.688;2023-06-01T03:40:20;100821.09;;;13.62;100.00
75298;BME280;63896;45.990;18.688;2023-06-01T03:43:23;100824.47;;;13.69;100.00
75298;BME280;63896;45.990;18.688;2023-06-01T03:46:26;100821.00;;;13.68;100.00
75298;BME280;63896;45.990;18.688;2023-06-01T03:49:29;100819.19;;;13.80;100.00
75298;BME280;63896;45.990;18.688;2023-06-01T03:52:33;100817.72;;;13.84;100.00
75298;BME280;63896;45.990;18.688;2023-06-01T03:55:37;100814.75;;;13.93;100.00
75298;BME280;63896;45.990;18.688;2023-06-01T03:58:47;100809.91;;;14.01;100.00
75298;BME280;63896;45.990;18.688;2023-06-01T04:01:51;100825.38;;;14.11;100.00
75298;BME280;63896;45.990;18.688;2023-06-01T04:04:54;100824.88;;;14.32;100.00
75298;BME280;63896;45.990;18.688;2023-06-01T04:07:57;100829.53;;;14.37;100.00
75298;BME280;63896;45.990;18.688;2023-06-01T04:11:00;100830.84;;;14.46;100.00
75298;BME280;63896;45.990;18.688;2023-06-01T04:14:04;100843.19;;;14.58;100.00
75298;BME280;63896;45.990;18.688;2023-06-01T04:17:08;100850.44;;;14.81;100.00
75298;BME280;63896;45.990;18.688;2023-06-01T04:20:14;100838.81;;;14.99;100.00
75298;BME280;63896;45.990;18.688;2023-06-01T04:23:18;100849.50;;;15.22;100.00
75298;BME280;63896;45.990;18.688;2023-06-01T04:26:21;100859.16;;;15.23;100.00
75298;BME280;63896;45.990;18.688;2023-06-01T04:29:24;100859.63;;;15.32;100.00
75298;BME280;63896;45.990;18.688;2023-06-01T04:32:27;100857.41;;;15.40;100.00
75298;BME280;63896;45.990;18.688;2023-06-01T04:35:30;100866.03;;;15.54;100.00
75298;BME280;63896;45.990;18.688;2023-06-01T04:38:33;100871.81;;;15.74;100.00
75298;BME280;63896;45.990;18.688;2023-06-01T04:41:37;100873.66;;;15.73;100.00
75298;BME280;63896;45.990;18.688;2023-06-01T04:44:41;100869.66;;;15.88;100.00
75298;BME280;63896;45.990;18.688;2023-06-01T04:47:44;100872.50;;;16.38;100.00
75298;BME280;63896;45.990;18.688;2023-06-01T04:50:58;100878.03;;;16.76;100.00
75298;BME280;63896;45.990;18.688;2023-06-01T04:54:05;100866.59;;;16.97;100.00
75298;BME280;63896;45.990;18.688;2023-06-01T04:57:09;100864.28;;;17.39;99.01
75298;BME280;63896;45.990;18.688;2023-06-01T05:00:14;100863.44;;;17.77;95.72
75298;BME280;63896;45.990;18.688;2023-06-01T05:03:17;100860.13;;;17.92;94.01
75298;BME280;63896;45.990;18.688;2023-06-01T05:06:20;100857.69;;;18.61;90.74
75298;BME280;63896;45.990;18.688;2023-06-01T05:09:23;100863.72;;;18.51;90.46
75298;BME280;63896;45.990;18.688;2023-06-01T05:12:26;100862.41;;;18.80;90.13
75298;BME280;63896;45.990;18.688;2023-06-01T05:15:29;100864.47;;;18.46;91.00
75298;BME280;63896;45.990;18.688;2023-06-01T05:18:34;100862.19;;;18.55;90.57
75298;BME280;63896;45.990;18.688;2023-06-01T05:21:37;100859.56;;;18.60;91.04
75298;BME280;63896;45.990;18.688;2023-06-01T05:24:40;100861.78;;;18.68;91.51
75298;BME280;63896;45.990;18.688;2023-06-01T05:27:43;100866.38;;;18.73;89.17
75298;BME280;63896;45.990;18.688;2023-06-01T05:30:47;100866.13;;;18.74;90.26
75298;BME280;63896;45.990;18.688;2023-06-01T05:33:50;100869.09;;;18.51;90.91
75298;BME280;63896;45.990;18.688;2023-06-01T05:36:57;100860.50;;;18.76;90.92
75298;BME280;63896;45.990;18.688;2023-06-01T05:40:00;100866.22;;;18.89;88.05
75298;BME280;63896;45.990;18.688;2023-06-01T05:43:03;100862.59;;;19.06;85.45
75298;BME280;63896;45.990;18.688;2023-06-01T05:46:07;100862.66;;;19.11;88.48
75298;BME280;63896;45.990;18.688;2023-06-01T05:49:11;100858.41;;;19.25;88.27
75298;BME280;63896;45.990;18.688;2023-06-01T05:52:13;100866.59;;;19.40;85.69
75298;BME280;63896;45.990;18.688;2023-06-01T05:55:18;100865.84;;;19.44;83.84
75298;BME280;63896;45.990;18.688;2023-06-01T05:58:21;100866.44;;;19.57;82.76
75298;BME280;63896;45.990;18.688;2023-06-01T06:01:29;100868.16;;;19.73;81.30
75298;BME280;63896;45.990;18.688;2023-06-01T06:05:48;100868.31;;;19.56;85.66
75298;BME280;63896;45.990;18.688;2023-06-01T06:08:58;100873.56;;;19.83;84.13
75298;BME280;63896;45.990;18.688;2023-06-01T06:12:03;100874.13;;;19.90;83.23
75298;BME280;63896;45.990;18.688;2023-06-01T06:15:06;100877.41;;;20.02;83.68
75298;BME280;63896;45.990;18.688;2023-06-01T06:18:10;100871.53;;;20.15;82.25
75298;BME280;63896;45.990;18.688;2023-06-01T06:21:18;100878.50;;;20.16;80.25
75298;BME280;63896;45.990;18.688;2023-06-01T06:24:22;100881.09;;;20.68;78.03
75298;BME280;63896;45.990;18.688;2023-06-01T06:27:25;100880.53;;;20.91;76.50
75298;BME280;63896;45.990;18.688;2023-06-01T06:31:00;100878.66;;;21.17;76.55
75298;BME280;63896;45.990;18.688;2023-06-01T06:34:06;100875.16;;;21.27;77.20
75298;BME280;63896;45.990;18.688;2023-06-01T06:37:16;100870.69;;;21.76;74.39
75298;BME280;63896;45.990;18.688;2023-06-01T06:40:43;100870.88;;;21.90;73.63
75298;BME280;63896;45.990;18.688;2023-06-01T06:43:52;100869.97;;;22.20;71.42
75298;BME280;63896;45.990;18.688;2023-06-01T06:46:55;100860.88;;;22.45;71.69
75298;BME280;63896;45.990;18.688;2023-06-01T06:49:58;100870.84;;;22.49;69.71
75298;BME280;63896;45.990;18.688;2023-06-01T06:53:01;100863.78;;;22.53;68.42
75298;BME280;63896;45.990;18.688;2023-06-01T06:56:04;100855.97;;;23.14;67.48
75298;BME280;63896;45.990;18.688;2023-06-01T06:59:08;100866.53;;;23.45;66.73
75298;BME280;63896;45.990;18.688;2023-06-01T07:02:11;100863.28;;;23.14;65.24
75298;BME280;63896;45.990;18.688;2023-06-01T07:05:13;100867.56;;;23.49;66.27
75298;BME280;63896;45.990;18.688;2023-06-01T07:08:16;100866.88;;;23.62;65.56
75298;BME280;63896;45.990;18.688;2023-06-01T07:11:20;100867.69;;;24.05;61.92
75298;BME280;63896;45.990;18.688;2023-06-01T07:14:23;100873.72;;;24.02;61.60
75298;BME280;63896;45.990;18.688;2023-06-01T07:17:26;100874.56;;;24.21;60.42
75298;BME280;63896;45.990;18.688;2023-06-01T07:20:29;100866.91;;;25.39;56.58
75298;BME280;63896;45.990;18.688;2023-06-01T07:23:32;100872.91;;;25.22;57.05
75298;BME280;63896;45.990;18.688;2023-06-01T07:26:35;100874.38;;;24.12;60.26
75298;BME280;63896;45.990;18.688;2023-06-01T07:29:38;100865.66;;;25.04;57.64
75298;BME280;63896;45.990;18.688;2023-06-01T07:32:42;100866.81;;;24.84;58.19
75298;BME280;63896;45.990;18.688;2023-06-01T07:35:45;100868.88;;;24.17;60.37
75298;BME280;63896;45.990;18.688;2023-06-01T07:38:49;100870.59;;;24.51;59.87
75298;BME280;63896;45.990;18.688;2023-06-01T07:41:53;100867.09;;;24.83;58.89
75298;BME280;63896;45.990;18.688;2023-06-01T07:45:07;100862.09;;;25.36;56.93
75298;BME280;63896;45.990;18.688;2023-06-01T07:49:04;100861.16;;;26.08;53.63
75298;BME280;63896;45.990;18.688;2023-06-01T07:52:07;100872.63;;;26.55;52.56
75298;BME280;63896;45.990;18.688;2023-06-01T07:55:09;100863.00;;;25.86;53.00
75298;BME280;63896;45.990;18.688;2023-06-01T07:58:12;100865.44;;;26.37;53.07
75298;BME280;63896;45.990;18.688;2023-06-01T08:01:18;100855.59;;;28.29;48.73
75298;BME280;63896;45.990;18.688;2023-06-01T08:04:22;100856.63;;;29.06;48.96
75298;BME280;63896;45.990;18.688;2023-06-01T08:07:26;100855.88;;;30.02;45.88
75298;BME280;63896;45.990;18.688;2023-06-01T08:10:30;100850.63;;;30.71;42.61
75298;BME280;63896;45.990;18.688;2023-06-01T08:13:35;100851.75;;;29.96;43.47
75298;BME280;63896;45.990;18.688;2023-06-01T08:16:40;100848.69;;;30.39;42.11
75298;BME280;63896;45.990;18.688;2023-06-01T08:19:43;100848.41;;;32.31;37.65
75298;BME280;63896;45.990;18.688;2023-06-01T08:22:46;100847.97;;;31.64;37.87
75298;BME280;63896;45.990;18.688;2023-06-01T08:25:49;100849.41;;;31.26;39.07
75298;BME280;63896;45.990;18.688;2023-06-01T08:28:53;100850.28;;;30.60;40.31
75298;BME280;63896;45.990;18.688;2023-06-01T08:31:59;100850.63;;;30.71;40.54
75298;BME280;63896;45.990;18.688;2023-06-01T08:35:15;100845.25;;;32.44;37.77
75298;BME280;63896;45.990;18.688;2023-06-01T08:38:18;100843.69;;;32.71;37.24
75298;BME280;63896;45.990;18.688;2023-06-01T08:41:30;100838.75;;;34.06;34.87
75298;BME280;63896;45.990;18.688;2023-06-01T08:44:36;100849.41;;;32.94;36.16
75298;BME280;63896;45.990;18.688;2023-06-01T08:47:40;100843.41;;;31.56;38.27
75298;BME280;63896;45.990;18.688;2023-06-01T08:50:50;100835.63;;;32.78;36.25
75298;BME280;63896;45.990;18.688;2023-06-01T08:54:22;100839.09;;;32.91;36.68
75298;BME280;63896;45.990;18.688;2023-06-01T08:57:55;100828.88;;;35.27;33.13
75298;BME280;63896;45.990;18.688;2023-06-01T09:00:58;100835.84;;;33.48;35.95
75298;BME280;63896;45.990;18.688;2023-06-01T09:04:02;100832.03;;;33.37;36.66
75298;BME280;63896;45.990;18.688;2023-06-01T09:07:05;100826.88;;;34.21;34.33
75298;BME280;63896;45.990;18.688;2023-06-01T09:10:08;100826.53;;;34.07;35.45
75298;BME280;63896;45.990;18.688;2023-06-01T09:13:36;100824.63;;;34.87;33.82
75298;BME280;63896;45.990;18.688;2023-06-01T09:16:39;100814.56;;;35.70;32.12
75298;BME280;63896;45.990;18.688;2023-06-01T09:19:43;100820.41;;;34.94;33.43
75298;BME280;63896;45.990;18.688;2023-06-01T09:22:49;100820.09;;;35.70;31.97
75298;BME280;63896;45.990;18.688;2023-06-01T09:26:08;100815.75;;;35.20;32.20
75298;BME280;63896;45.990;18.688;2023-06-01T09:29:11;100818.22;;;36.74;29.33
75298;BME280;63896;45.990;18.688;2023-06-01T09:32:19;100815.75;;;35.99;30.41
75298;BME280;63896;45.990;18.688;2023-06-01T09:35:41;100809.50;;;36.06;29.56
75298;BME280;63896;45.990;18.688;2023-06-01T09:38:44;100812.28;;;36.72;27.63
75298;BME280;63896;45.990;18.688;2023-06-01T09:41:54;100803.41;;;35.37;31.29
75298;BME280;63896;45.990;18.688;2023-06-01T09:45:13;100791.94;;;35.88;30.20
75298;BME280;63896;45.990;18.688;2023-06-01T09:48:18;100792.81;;;36.62;28.43
75298;BME280;63896;45.990;18.688;2023-06-01T09:51:25;100798.38;;;35.69;29.42
75298;BME280;63896;45.990;18.688;2023-06-01T09:54:44;100796.03;;;35.45;29.78
75298;BME280;63896;45.990;18.688;2023-06-01T09:57:49;100793.16;;;36.23;29.24
75298;BME280;63896;45.990;18.688;2023-06-01T10:00:54;100796.38;;;36.62;30.07
75298;BME280;63896;45.990;18.688;2023-06-01T10:03:59;100786.88;;;36.60;29.16
75298;BME280;63896;45.990;18.688;2023-06-01T10:07:04;100793.91;;;36.94;28.61
75298;BME280;63896;45.990;18.688;2023-06-01T10:10:08;100797.84;;;38.09;27.25
75298;BME280;63896;45.990;18.688;2023-06-01T10:13:12;100793.66;;;37.10;28.86
75298;BME280;63896;45.990;18.688;2023-06-01T10:16:15;100771.03;;;38.42;26.20
75298;BME280;63896;45.990;18.688;2023-06-01T10:19:20;100775.38;;;37.53;28.69
75298;BME280;63896;45.990;18.688;2023-06-01T10:22:24;100769.75;;;36.88;29.07
75298;BME280;63896;45.990;18.688;2023-06-01T10:25:35;100765.94;;;34.87;32.01
75298;BME280;63896;45.990;18.688;2023-06-01T10:28:40;100762.59;;;35.23;31.31
75298;BME280;63896;45.990;18.688;2023-06-01T10:31:46;100760.34;;;33.65;34.80
75298;BME280;63896;45.990;18.688;2023-06-01T10:34:49;100762.75;;;32.84;36.54
75298;BME280;63896;45.990;18.688;2023-06-01T10:41:29;100751.47;;;34.10;33.86
75298;BME280;63896;45.990;18.688;2023-06-01T10:51:20;100735.19;;;36.30;31.47
75298;BME280;63896;45.990;18.688;2023-06-01T10:54:26;100729.50;;;36.53;30.44
75298;BME280;63896;45.990;18.688;2023-06-01T10:57:29;100726.75;;;37.62;29.08
75298;BME280;63896;45.990;18.688;2023-06-01T11:00:38;100724.22;;;35.41;31.24
75298;BME280;63896;45.990;18.688;2023-06-01T11:03:45;100723.53;;;36.51;31.54
75298;BME280;63896;45.990;18.688;2023-06-01T11:06:49;100718.84;;;36.99;28.93
75298;BME280;63896;45.990;18.688;2023-06-01T11:09:53;100713.31;;;37.57;29.83
75298;BME280;63896;45.990;18.688;2023-06-01T11:13:13;100713.03;;;35.90;30.11
75298;BME280;63896;45.990;18.688;2023-06-01T11:16:28;100709.28;;;36.93;28.77
75298;BME280;63896;45.990;18.688;2023-06-01T11:19:33;100701.84;;;37.69;27.02
75298;BME280;63896;45.990;18.688;2023-06-01T11:22:38;100693.59;;;37.84;26.54
75298;BME280;63896;45.990;18.688;2023-06-01T11:25:44;100692.31;;;36.95;28.44
75298;BME280;63896;45.990;18.688;2023-06-01T11:29:20;100685.56;;;36.92;29.71
75298;BME280;63896;45.990;18.688;2023-06-01T11:32:29;100679.53;;;37.34;27.28
75298;BME280;63896;45.990;18.688;2023-06-01T11:35:34;100675.91;;;38.59;25.72
75298;BME280;63896;45.990;18.688;2023-06-01T11:38:40;100665.63;;;38.91;24.99
75298;BME280;63896;45.990;18.688;2023-06-01T11:41:44;100663.66;;;33.66;30.50
75298;BME280;63896;45.990;18.688;2023-06-01T11:44:58;100661.91;;;36.07;28.20
75298;BME280;63896;45.990;18.688;2023-06-01T11:48:10;100649.34;;;34.90;28.98
75298;BME280;63896;45.990;18.688;2023-06-01T11:51:16;100648.72;;;34.51;30.43
75298;BME280;63896;45.990;18.688;2023-06-01T11:54:25;100632.47;;;36.25;28.52
75298;BME280;63896;45.990;18.688;2023-06-01T11:57:29;100638.22;;;34.37;30.54
75298;BME280;63896;45.990;18.688;2023-06-01T12:00:31;100632.50;;;36.28;28.14
75298;BME280;63896;45.990;18.688;2023-06-01T12:03:45;100627.56;;;34.59;28.89
75298;BME280;63896;45.990;18.688;2023-06-01T12:06:49;100621.28;;;34.84;27.88
75298;BME280;63896;45.990;18.688;2023-06-01T12:09:54;100617.47;;;36.22;26.83
75298;BME280;63896;45.990;18.688;2023-06-01T12:12:57;100623.59;;;36.49;26.76
75298;BME280;63896;45.990;18.688;2023-06-01T12:16:00;100616.13;;;37.11;25.55
75298;BME280;63896;45.990;18.688;2023-06-01T12:19:23;100609.13;;;35.78;27.93
75298;BME280;63896;45.990;18.688;2023-06-01T12:22:30;100604.56;;;36.41;28.86
75298;BME280;63896;45.990;18.688;2023-06-01T12:25:58;100612.22;;;36.58;26.23
75298;BME280;63896;45.990;18.688;2023-06-01T12:29:11;100599.56;;;37.15;25.30
75298;BME280;63896;45.990;18.688;2023-06-01T12:32:14;100593.25;;;37.25;26.49
75298;BME280;63896;45.990;18.688;2023-06-01T12:35:20;100588.91;;;37.24;25.13
75298;BME280;63896;45.990;18.688;2023-06-01T12:38:26;100591.06;;;36.32;25.56
75298;BME280;63896;45.990;18.688;2023-06-01T12:41:29;100592.50;;;36.63;24.87
75298;BME280;63896;45.990;18.688;2023-06-01T12:44:32;100593.00;;;37.55;24.55
75298;BME280;63896;45.990;18.688;2023-06-01T12:47:39;100585.50;;;34.39;27.88
75298;BME280;63896;45.990;18.688;2023-06-01T12:50:43;100591.84;;;35.52;25.58
75298;BME280;63896;45.990;18.688;2023-06-01T12:53:48;100591.56;;;36.99;24.26
75298;BME280;63896;45.990;18.688;2023-06-01T12:56:51;100577.19;;;36.76;24.19
75298;BME280;63896;45.990;18.688;2023-06-01T12:59:54;100577.22;;;36.83;24.14
75298;BME280;63896;45.990;18.688;2023-06-01T13:02:57;100571.59;;;37.48;24.26
75298;BME280;63896;45.990;18.688;2023-06-01T13:06:00;100555.44;;;37.68;24.09
75298;BME280;63896;45.990;18.688;2023-06-01T13:09:03;100565.25;;;36.10;25.42
75298;BME280;63896;45.990;18.688;2023-06-01T13:12:07;100554.66;;;36.23;25.70
75298;BME280;63896;45.990;18.688;2023-06-01T13:15:10;100552.81;;;35.20;26.42
75298;BME280;63896;45.990;18.688;2023-06-01T13:18:14;100551.78;;;33.77;28.80
75298;BME280;63896;45.990;18.688;2023-06-01T13:21:18;100554.66;;;32.69;31.95
75298;BME280;63896;45.990;18.688;2023-06-01T13:24:21;100552.66;;;31.04;33.17
75298;BME280;63896;45.990;18.688;2023-06-01T13:27:24;100549.50;;;31.18;33.20
75298;BME280;63896;45.990;18.688;2023-06-01T13:30:27;100538.41;;;30.74;33.24
75298;BME280;63896;45.990;18.688;2023-06-01T13:33:36;100536.03;;;31.41;31.85
75298;BME280;63896;45.990;18.688;2023-06-01T13:36:39;100533.28;;;30.73;33.26
75298;BME280;63896;45.990;18.688;2023-06-01T13:39:41;100527.69;;;30.33;34.12
75298;BME280;63896;45.990;18.688;2023-06-01T13:42:44;100525.31;;;30.07;35.36
75298;BME280;63896;45.990;18.688;2023-06-01T13:45:47;100516.75;;;30.45;34.43
75298;BME280;63896;45.990;18.688;2023-06-01T13:48:50;100507.41;;;30.58;35.70
75298;BME280;63896;45.990;18.688;2023-06-01T13:51:53;100499.19;;;30.22;35.04
75298;BME280;63896;45.990;18.688;2023-06-01T13:54:56;100497.81;;;30.52;35.54
75298;BME280;63896;45.990;18.688;2023-06-01T13:57:59;100495.63;;;29.97;35.68
75298;BME280;63896;45.990;18.688;2023-06-01T14:01:02;100496.47;;;28.78;37.92
75298;BME280;63896;45.990;18.688;2023-06-01T14:04:06;100492.63;;;29.12;37.56
75298;BME280;63896;45.990;18.688;2023-06-01T14:07:09;100477.41;;;29.44;36.19
75298;BME280;63896;45.990;18.688;2023-06-01T14:10:12;100473.50;;;29.33;36.02
75298;BME280;63896;45.990;18.688;2023-06-01T14:13:17;100478.41;;;28.86;36.13
75298;BME280;63896;45.990;18.688;2023-06-01T14:16:19;100472.75;;;28.91;36.73
75298;BME280;63896;45.990;18.688;2023-06-01T14:19:22;100476.19;;;29.00;37.84
75298;BME280;63896;45.990;18.688;2023-06-01T14:22:27;100464.09;;;29.22;36.51
75298;BME280;63896;45.990;18.688;2023-06-01T14:25:30;100458.47;;;29.39;38.02
75298;BME280;63896;45.990;18.688;2023-06-01T14:28:33;100463.41;;;28.71;37.88
75298;BME280;63896;45.990;18.688;2023-06-01T14:31:36;100460.94;;;28.99;39.65
75298;BME280;63896;45.990;18.688;2023-06-01T14:34:39;100454.66;;;28.57;39.05
75298;BME280;63896;45.990;18.688;2023-06-01T14:37:42;100448.91;;;28.50;37.59
75298;BME280;63896;45.990;18.688;2023-06-01T14:40:51;100456.88;;;27.76;38.46
75298;BME280;63896;45.990;18.688;2023-06-01T14:43:54;100448.03;;;28.17;38.16
75298;BME280;63896;45.990;18.688;2023-06-01T14:46:57;100435.91;;;28.76;38.64
75298;BME280;63896;45.990;18.688;2023-06-01T14:50:03;100441.38;;;28.76;38.38
75298;BME280;63896;45.990;18.688;2023-06-01T14:53:06;100441.13;;;29.02;38.18
75298;BME280;63896;45.990;18.688;2023-06-01T14:56:10;100447.72;;;28.68;39.73
75298;BME280;63896;45.990;18.688;2023-06-01T14:59:13;100436.28;;;29.08;37.40
75298;BME280;63896;45.990;18.688;2023-06-01T15:02:15;100433.50;;;28.75;38.65
75298;BME280;63896;45.990;18.688;2023-06-01T15:05:18;100428.94;;;29.32;39.59
75298;BME280;63896;45.990;18.688;2023-06-01T15:08:21;100426.06;;;29.62;37.36
75298;BME280;63896;45.990;18.688;2023-06-01T15:11:25;100427.69;;;29.87;37.87
75298;BME280;63896;45.990;18.688;2023-06-01T15:14:29;100440.78;;;29.94;37.00
75298;BME280;63896;45.990;18.688;2023-06-01T15:17:32;100445.75;;;27.81;41.25
75298;BME280;63896;45.990;18.688;2023-06-01T15:20:35;100448.50;;;27.00;43.51
75298;BME280;63896;45.990;18.688;2023-06-01T15:23:38;100445.13;;;26.51;45.02
75298;BME280;63896;45.990;18.688;2023-06-01T15:26:41;100457.59;;;25.96;46.93
75298;BME280;63896;45.990;18.688;2023-06-01T15:29:44;100450.19;;;25.48;47.42
75298;BME280;63896;45.990;18.688;2023-06-01T15:32:47;100441.09;;;25.92;46.82
75298;BME280;63896;45.990;18.688;2023-06-01T15:36:09;100437.13;;;25.90;48.81
75298;BME280;63896;45.990;18.688;2023-06-01T15:39:12;100440.06;;;25.71;49.33
75298;BME280;63896;45.990;18.688;2023-06-01T15:42:15;100439.16;;;25.84;49.09
75298;BME280;63896;45.990;18.688;2023-06-01T15:45:18;100441.72;;;25.28;51.01
75298;BME280;63896;45.990;18.688;2023-06-01T15:48:21;100431.41;;;25.38;51.35
75298;BME280;63896;45.990;18.688;2023-06-01T15:51:24;100423.47;;;24.97;52.51
75298;BME280;63896;45.990;18.688;2023-06-01T15:54:27;100422.84;;;24.78;52.91
75298;BME280;63896;45.990;18.688;2023-06-01T15:57:30;100421.75;;;25.01;53.53
75298;BME280;63896;45.990;18.688;2023-06-01T16:00:33;100417.41;;;25.23;51.98
75298;BME280;63896;45.990;18.688;2023-06-01T16:03:36;100413.59;;;24.79;53.92
75298;BME280;63896;45.990;18.688;2023-06-01T16:06:40;100409.81;;;25.11;52.57
75298;BME280;63896;45.990;18.688;2023-06-01T16:09:43;100402.28;;;25.52;50.67
75298;BME280;63896;45.990;18.688;2023-06-01T16:12:45;100414.28;;;25.38;50.00
75298;BME280;63896;45.990;18.688;2023-06-01T16:15:48;100406.13;;;25.29;48.42
75298;BME280;63896;45.990;18.688;2023-06-01T16:18:51;100406.16;;;25.38;48.49
75298;BME280;63896;45.990;18.688;2023-06-01T16:21:54;100397.47;;;25.27;48.79